Time;durP1;ratioP1;P1;durP2;ratioP2;P2;SDS_P1;SDS_P2;PMS_P1;PMS_P2;Temp;Humidity;BMP_temperature;BMP_pressure;BME280_temperature;BME280_humidity;BME280_pressure;Samples;Min_cycle;Max_cycle;Signal;HPM_P1;HPM_P2
2023/11/15 00:00:37;;;;;;;4.73;1.60;;;;;;;;;;5085529;28;20498;-78
2023/11/15 00:03:06;;;;;;;7.10;1.87;;;;;;;;;;5085900;28;20445;-78
2023/11/15 00:05:35;;;;;;;3.30;1.07;;;;;;;;;;5086081;28;20453;-78
2023/11/15 00:08:03;;;;;;;2.63;0.90;;;;;;;;;;5085305;28;20492;-78
2023/11/15 00:10:31;;;;;;;4.33;1.53;;;;;;;;;;5083737;28;20597;-78
2023/11/15 00:12:59;;;;;;;3.90;2.50;;;;;;;;;;5083889;28;20553;-78
2023/11/15 00:15:27;;;;;;;3.63;1.20;;;;;;;;;;5086266;28;20829;-78
2023/11/15 00:17:55;;;;;;;4.83;1.00;;;;;;;;;;5087332;28;20483;-78
2023/11/15 00:20:22;;;;;;;3.70;1.00;;;;;;;;;;5084060;28;20490;-78
2023/11/15 00:22:51;;;;;;;2.00;0.60;;;;;;;;;;5085201;28;20437;-78
2023/11/15 00:25:19;;;;;;;3.70;0.70;;;;;;;;;;5082177;28;20457;-77
2023/11/15 00:27:47;;;;;;;2.83;1.00;;;;;;;;;;5079918;28;20793;-77
2023/11/15 00:30:16;;;;;;;2.27;0.80;;;;;;;;;;5081840;28;20730;-77
2023/11/15 00:32:44;;;;;;;2.17;0.70;;;;;;;;;;5078925;28;20944;-77
2023/11/15 00:35:12;;;;;;;2.47;0.70;;;;;;;;;;5081168;28;20467;-78
2023/11/15 00:37:40;;;;;;;2.33;0.80;;;;;;;;;;5081210;28;20445;-78
2023/11/15 00:40:13;;;;;;;2.23;0.87;;;;;;;;;;5080842;28;20449;-78
2023/11/15 00:42:43;;;;;;;2.90;1.20;;;;;;;;;;5079624;28;20527;-77
2023/11/15 00:45:11;;;;;;;2.83;0.70;;;;;;;;;;5079505;28;20488;-78
2023/11/15 00:47:39;;;;;;;2.40;0.80;;;;;;;;;;5083885;28;20456;-77
2023/11/15 00:50:10;;;;;;;2.63;0.90;;;;;;;;;;5080600;28;20892;-77
2023/11/15 00:52:38;;;;;;;2.50;0.90;;;;;;;;;;5080997;28;20927;-77
2023/11/15 00:55:06;;;;;;;2.37;0.90;;;;;;;;;;5080630;28;20464;-77
2023/11/15 00:57:35;;;;;;;2.20;0.80;;;;;;;;;;5084004;28;20521;-78
2023/11/15 01:00:21;;;;;;;2.50;0.90;;;;;;;;;;5081292;28;20457;-76
2023/11/15 01:02:50;;;;;;;2.70;1.00;;;;;;;;;;5081737;28;20460;-77
2023/11/15 01:05:18;;;;;;;4.10;2.67;;;;;;;;;;5080991;28;20463;-77
2023/11/15 01:07:49;;;;;;;2.70;1.00;;;;;;;;;;5080329;28;20449;-77
2023/11/15 01:10:25;;;;;;;3.13;1.10;;;;;;;;;;5078448;28;20475;-77
2023/11/15 01:12:54;;;;;;;2.00;0.80;;;;;;;;;;5080594;28;20484;-78
2023/11/15 01:15:23;;;;;;;2.37;0.80;;;;;;;;;;5082393;28;20705;-78
2023/11/15 01:17:51;;;;;;;2.80;1.10;;;;;;;;;;5086211;28;20466;-78
2023/11/15 01:20:19;;;;;;;3.40;0.73;;;;;;;;;;5083292;28;20464;-78
2023/11/15 01:22:50;;;;;;;2.73;0.90;;;;;;;;;;5084245;28;20441;-78
2023/11/15 01:25:20;;;;;;;4.50;0.83;;;;;;;;;;5081858;28;20447;-78
2023/11/15 01:27:48;;;;;;;3.10;0.87;;;;;;;;;;5083161;28;20461;-77
2023/11/15 01:30:19;;;;;;;2.50;1.13;;;;;;;;;;5080870;28;20490;-77
2023/11/15 01:32:47;;;;;;;2.80;0.90;;;;;;;;;;5080464;28;20484;-76
2023/11/15 01:35:17;;;;;;;2.53;0.90;;;;;;;;;;5081141;28;20460;-77
2023/11/15 01:37:47;;;;;;;2.97;1.23;;;;;;;;;;5083212;28;20483;-77
2023/11/15 01:40:20;;;;;;;2.30;1.00;;;;;;;;;;5080585;28;20691;-79
2023/11/15 01:42:48;;;;;;;3.40;1.10;;;;;;;;;;5079206;28;20451;-79
2023/11/15 01:45:17;;;;;;;2.70;1.27;;;;;;;;;;5077808;28;20476;-78
2023/11/15 01:47:45;;;;;;;3.50;1.43;;;;;;;;;;5078778;28;20546;-77
2023/11/15 01:50:14;;;;;;;3.17;1.40;;;;;;;;;;5078433;28;20514;-77
2023/11/15 01:52:43;;;;;;;3.20;1.60;;;;;;;;;;5077626;28;20554;-77
2023/11/15 01:55:13;;;;;;;3.47;1.70;;;;;;;;;;5079915;28;20506;-78
2023/11/15 01:57:41;;;;;;;3.90;2.30;;;;;;;;;;5081357;28;20452;-78
2023/11/15 02:00:12;;;;;;;3.43;1.73;;;;;;;;;;5079844;28;20452;-77
2023/11/15 02:02:44;;;;;;;4.07;2.60;;;;;;;;;;5081540;28;20452;-77
2023/11/15 02:05:13;;;;;;;5.07;2.47;;;;;;;;;;5082621;28;20455;-77
2023/11/15 02:07:41;;;;;;;4.17;2.70;;;;;;;;;;5082175;28;20724;-77
2023/11/15 02:10:09;;;;;;;4.77;2.80;;;;;;;;;;5083427;28;20453;-79
2023/11/15 02:12:36;;;;;;;4.73;2.67;;;;;;;;;;5079715;28;20472;-77
2023/11/15 02:15:04;;;;;;;4.60;2.87;;;;;;;;;;5083272;28;20709;-79
2023/11/15 02:17:32;;;;;;;4.53;3.03;;;;;;;;;;5084412;28;20878;-79
2023/11/15 02:20:06;;;;;;;5.00;3.00;;;;;;;;;;5082393;28;20523;-77
2023/11/15 02:22:34;;;;;;;5.97;3.43;;;;;;;;;;5080259;28;20452;-78
2023/11/15 02:25:03;;;;;;;5.70;3.63;;;;;;;;;;5080765;28;20448;-77
2023/11/15 02:27:31;;;;;;;6.00;3.70;;;;;;;;;;5079786;28;20519;-77
2023/11/15 02:30:00;;;;;;;4.63;3.20;;;;;;;;;;5082092;28;20497;-79
2023/11/15 02:32:31;;;;;;;6.23;3.70;;;;;;;;;;5083619;28;20484;-78
2023/11/15 02:34:58;;;;;;;5.90;3.27;;;;;;;;;;5083250;28;20535;-78
2023/11/15 02:37:26;;;;;;;5.60;3.47;;;;;;;;;;5081877;28;20476;-78
2023/11/15 02:39:54;;;;;;;5.80;3.63;;;;;;;;;;5081254;28;20479;-78
2023/11/15 02:42:24;;;;;;;4.63;2.90;;;;;;;;;;5081954;28;20607;-78
2023/11/15 02:44:51;;;;;;;6.00;3.60;;;;;;;;;;5080469;28;20482;-78
2023/11/15 02:47:19;;;;;;;5.90;3.60;;;;;;;;;;5082727;28;20436;-78
2023/11/15 02:49:47;;;;;;;7.50;3.50;;;;;;;;;;5082100;28;20463;-78
2023/11/15 02:52:15;;;;;;;7.07;4.30;;;;;;;;;;5081816;28;20499;-78
2023/11/15 02:54:43;;;;;;;5.63;3.70;;;;;;;;;;5084505;28;20457;-78
2023/11/15 02:57:11;;;;;;;6.63;4.97;;;;;;;;;;5085675;28;20536;-79
2023/11/15 02:59:40;;;;;;;5.83;4.20;;;;;;;;;;5085673;28;20521;-77
2023/11/15 03:02:08;;;;;;;7.03;4.53;;;;;;;;;;5088495;28;20451;-78
2023/11/15 03:04:36;;;;;;;6.10;4.73;;;;;;;;;;5087057;28;20720;-78
2023/11/15 03:07:03;;;;;;;6.20;4.50;;;;;;;;;;5088327;28;20511;-78
2023/11/15 03:09:31;;;;;;;8.03;5.00;;;;;;;;;;5088256;28;20459;-78
2023/11/15 03:11:59;;;;;;;10.77;5.47;;;;;;;;;;5088099;28;20957;-78
2023/11/15 03:14:27;;;;;;;10.40;6.90;;;;;;;;;;5088437;28;20468;-78
2023/11/15 03:16:56;;;;;;;8.40;5.43;;;;;;;;;;5088380;28;20456;-78
2023/11/15 03:19:24;;;;;;;7.30;5.03;;;;;;;;;;5084816;28;20456;-78
2023/11/15 03:21:52;;;;;;;9.10;4.93;;;;;;;;;;5085943;28;20471;-78
2023/11/15 03:24:20;;;;;;;8.90;5.10;;;;;;;;;;5085927;28;20475;-78
2023/11/15 03:26:48;;;;;;;8.33;5.20;;;;;;;;;;5085679;28;20469;-77
2023/11/15 03:29:15;;;;;;;8.73;4.90;;;;;;;;;;5084891;28;20475;-78
2023/11/15 03:31:43;;;;;;;6.73;4.60;;;;;;;;;;5086073;28;20444;-77
2023/11/15 03:34:12;;;;;;;7.87;4.73;;;;;;;;;;5083991;28;20848;-78
2023/11/15 03:36:41;;;;;;;6.00;4.30;;;;;;;;;;5084846;28;20553;-78
2023/11/15 03:39:09;;;;;;;6.90;4.90;;;;;;;;;;5084646;28;20456;-78
2023/11/15 03:41:37;;;;;;;7.50;4.60;;;;;;;;;;5085437;28;20494;-77
2023/11/15 03:44:05;;;;;;;7.30;4.40;;;;;;;;;;5083628;28;20476;-77
2023/11/15 03:46:32;;;;;;;6.87;3.80;;;;;;;;;;5085581;28;20453;-78
2023/11/15 03:49:00;;;;;;;5.60;3.23;;;;;;;;;;5084555;28;20456;-78
2023/11/15 03:51:29;;;;;;;7.80;4.33;;;;;;;;;;5087328;28;20444;-78
2023/11/15 03:53:57;;;;;;;7.97;3.97;;;;;;;;;;5081598;28;20484;-77
2023/11/15 03:56:28;;;;;;;6.67;4.30;;;;;;;;;;5081407;28;20456;-78
2023/11/15 03:58:56;;;;;;;7.60;4.13;;;;;;;;;;5085578;28;20889;-78
2023/11/15 04:01:29;;;;;;;8.73;3.53;;;;;;;;;;5080138;28;20952;-77
2023/11/15 04:03:57;;;;;;;9.07;4.60;;;;;;;;;;5081345;28;20452;-79
2023/11/15 04:06:32;;;;;;;7.03;4.00;;;;;;;;;;5079745;28;20621;-78
2023/11/15 04:09:00;;;;;;;7.67;4.57;;;;;;;;;;5083588;28;20884;-76
2023/11/15 04:11:28;;;;;;;7.30;3.70;;;;;;;;;;5081071;28;20957;-77
2023/11/15 04:13:57;;;;;;;6.17;3.80;;;;;;;;;;5082398;28;20562;-77
2023/11/15 04:16:30;;;;;;;8.67;5.90;;;;;;;;;;5082533;28;20801;-79
2023/11/15 04:19:00;;;;;;;7.50;4.17;;;;;;;;;;5084375;28;20510;-78
2023/11/15 04:21:28;;;;;;;6.17;3.77;;;;;;;;;;5086294;28;20461;-78
2023/11/15 04:23:58;;;;;;;6.80;4.13;;;;;;;;;;5080223;28;20755;-78
2023/11/15 04:26:29;;;;;;;6.97;4.17;;;;;;;;;;5083418;28;20455;-78
2023/11/15 04:28:57;;;;;;;5.90;3.53;;;;;;;;;;5081763;28;20472;-78
2023/11/15 04:31:25;;;;;;;6.30;3.87;;;;;;;;;;5083118;28;20456;-79
2023/11/15 04:33:55;;;;;;;6.30;3.67;;;;;;;;;;5081792;28;20483;-78
2023/11/15 04:36:26;;;;;;;4.90;3.30;;;;;;;;;;5083351;28;20978;-78
2023/11/15 04:38:54;;;;;;;6.07;3.80;;;;;;;;;;5081492;28;20452;-78
2023/11/15 04:41:23;;;;;;;5.73;3.10;;;;;;;;;;5080795;28;20452;-78
2023/11/15 04:43:51;;;;;;;6.20;2.97;;;;;;;;;;5081065;28;20472;-79
2023/11/15 04:46:19;;;;;;;5.10;3.20;;;;;;;;;;5080361;28;20479;-78
2023/11/15 04:48:47;;;;;;;4.90;2.73;;;;;;;;;;5083302;28;20471;-78
2023/11/15 04:51:15;;;;;;;6.33;2.47;;;;;;;;;;5083895;28;20547;-78
2023/11/15 04:53:42;;;;;;;4.43;2.13;;;;;;;;;;5081397;28;20512;-78
2023/11/15 04:56:13;;;;;;;4.77;2.70;;;;;;;;;;5083269;28;20501;-78
2023/11/15 04:58:42;;;;;;;4.20;2.10;;;;;;;;;;5078175;28;20518;-78
2023/11/15 05:01:12;;;;;;;4.90;2.87;;;;;;;;;;5076940;28;20881;-79
2023/11/15 05:03:39;;;;;;;4.30;2.30;;;;;;;;;;5077516;28;20453;-77
2023/11/15 05:06:07;;;;;;;6.60;2.80;;;;;;;;;;5076845;28;20468;-77
2023/11/15 05:08:35;;;;;;;4.83;2.40;;;;;;;;;;5077662;28;20543;-79
2023/11/15 05:11:03;;;;;;;6.27;3.10;;;;;;;;;;5084097;28;20462;-78
2023/11/15 05:13:31;;;;;;;5.27;3.00;;;;;;;;;;5082893;28;20575;-77
2023/11/15 05:16:00;;;;;;;5.00;2.67;;;;;;;;;;5084660;28;20444;-78
2023/11/15 05:18:28;;;;;;;5.60;2.83;;;;;;;;;;5078725;28;20445;-78
2023/11/15 05:20:55;;;;;;;5.30;3.43;;;;;;;;;;5082456;28;20482;-78
2023/11/15 05:23:23;;;;;;;4.47;2.23;;;;;;;;;;5078156;28;20487;-79
2023/11/15 05:25:51;;;;;;;4.73;2.27;;;;;;;;;;5077442;28;21087;-76
2023/11/15 05:28:20;;;;;;;7.47;2.63;;;;;;;;;;5076061;28;20878;-79
2023/11/15 05:30:49;;;;;;;3.83;2.10;;;;;;;;;;5078718;28;20756;-77
2023/11/15 05:33:18;;;;;;;4.80;2.30;;;;;;;;;;5077990;28;20902;-78
2023/11/15 05:35:45;;;;;;;6.73;2.20;;;;;;;;;;5076349;28;20524;-78
2023/11/15 05:38:13;;;;;;;4.20;2.30;;;;;;;;;;5080716;28;20453;-78
2023/11/15 05:40:43;;;;;;;4.10;2.10;;;;;;;;;;5081050;28;20456;-78
2023/11/15 05:43:11;;;;;;;4.00;2.10;;;;;;;;;;5081951;28;20449;-79
2023/11/15 05:45:39;;;;;;;6.67;2.20;;;;;;;;;;5077966;28;20476;-78
2023/11/15 05:48:06;;;;;;;6.20;2.60;;;;;;;;;;5082990;28;20510;-78
2023/11/15 05:50:35;;;;;;;5.67;2.57;;;;;;;;;;5080140;28;20513;-78
2023/11/15 05:53:05;;;;;;;4.03;2.10;;;;;;;;;;5081644;28;20476;-78
2023/11/15 05:55:33;;;;;;;4.87;2.73;;;;;;;;;;5080966;28;20935;-79
2023/11/15 05:58:01;;;;;;;4.70;2.30;;;;;;;;;;5078493;28;20424;-77
2023/11/15 06:00:30;;;;;;;6.77;2.80;;;;;;;;;;5076230;28;20514;-77
2023/11/15 06:02:57;;;;;;;3.80;1.90;;;;;;;;;;5075099;28;20468;-76
2023/11/15 06:05:25;;;;;;;5.83;2.53;;;;;;;;;;5074833;28;20461;-77
2023/11/15 06:07:55;;;;;;;5.00;2.47;;;;;;;;;;5073586;28;20457;-78
2023/11/15 06:10:23;;;;;;;5.00;2.53;;;;;;;;;;5074776;28;20453;-77
2023/11/15 06:12:51;;;;;;;5.13;3.00;;;;;;;;;;5075059;28;20456;-79
2023/11/15 06:15:19;;;;;;;3.90;2.20;;;;;;;;;;5074972;28;20456;-77
2023/11/15 06:17:46;;;;;;;4.77;2.80;;;;;;;;;;5073604;28;20453;-78
2023/11/15 06:20:16;;;;;;;4.60;2.37;;;;;;;;;;5072929;28;20515;-77
2023/11/15 06:22:43;;;;;;;4.13;2.53;;;;;;;;;;5070836;28;20732;-78
2023/11/15 06:25:18;;;;;;;5.70;3.23;;;;;;;;;;5072898;28;20533;-80
2023/11/15 06:27:46;;;;;;;4.23;2.00;;;;;;;;;;5071733;28;20433;-78
2023/11/15 06:30:16;;;;;;;5.63;3.33;;;;;;;;;;5072606;28;20440;-77
2023/11/15 06:32:45;;;;;;;6.60;3.90;;;;;;;;;;5071068;28;20853;-77
2023/11/15 06:35:18;;;;;;;5.10;2.90;;;;;;;;;;5068005;28;20488;-79
2023/11/15 06:37:46;;;;;;;5.73;2.27;;;;;;;;;;5072132;28;20951;-78
2023/11/15 06:40:19;;;;;;;8.33;3.63;;;;;;;;;;5070588;28;20470;-79
2023/11/15 06:42:47;;;;;;;4.93;3.00;;;;;;;;;;5077441;28;20448;-77
2023/11/15 06:45:14;;;;;;;9.97;3.90;;;;;;;;;;5081426;28;20745;-79
2023/11/15 06:47:42;;;;;;;7.10;3.03;;;;;;;;;;5076307;28;20919;-78
2023/11/15 06:50:11;;;;;;;5.13;2.97;;;;;;;;;;5071366;28;20636;-77
2023/11/15 06:52:39;;;;;;;6.93;3.20;;;;;;;;;;5072786;28;20444;-77
2023/11/15 06:55:09;;;;;;;7.30;2.90;;;;;;;;;;5071857;28;20746;-77
2023/11/15 06:57:40;;;;;;;5.80;2.53;;;;;;;;;;5076700;28;20870;-79
2023/11/15 07:00:11;;;;;;;4.30;2.20;;;;;;;;;;5072974;28;20452;-77
2023/11/15 07:02:40;;;;;;;5.37;2.63;;;;;;;;;;5076687;28;20768;-77
2023/11/15 07:05:10;;;;;;;5.87;2.83;;;;;;;;;;5078091;28;20472;-77
2023/11/15 07:14:57;;;;;;;5.00;2.73;;;;;;;;;;5052604;28;20488;-78
2023/11/15 07:20:51;;;;;;;6.37;3.27;;;;;;;;;;5053508;28;20453;-78
2023/11/15 07:23:20;;;;;;;5.50;2.10;;;;;;;;;;5058923;28;20805;-77
2023/11/15 07:25:51;;;;;;;4.63;3.20;;;;;;;;;;5058756;28;20563;-77
2023/11/15 07:28:19;;;;;;;6.40;3.20;;;;;;;;;;5064698;28;20450;-78
2023/11/15 07:30:47;;;;;;;4.47;2.40;;;;;;;;;;5050137;28;20429;-77
2023/11/15 07:33:15;;;;;;;4.07;2.00;;;;;;;;;;5055912;28;20681;-78
2023/11/15 07:35:46;;;;;;;11.63;3.13;;;;;;;;;;5055047;28;20453;-78
2023/11/15 07:38:13;;;;;;;4.83;2.20;;;;;;;;;;5061016;28;20458;-78
2023/11/15 07:40:43;;;;;;;7.67;3.10;;;;;;;;;;5055093;28;20499;-78
2023/11/15 07:43:14;;;;;;;7.07;3.10;;;;;;;;;;5054964;28;20801;-79
2023/11/15 07:45:42;;;;;;;4.97;2.77;;;;;;;;;;5057234;28;20510;-79
2023/11/15 07:48:11;;;;;;;4.43;2.33;;;;;;;;;;5059334;28;20456;-77
2023/11/15 07:50:40;;;;;;;7.93;2.83;;;;;;;;;;5051577;28;20446;-78
2023/11/15 07:53:09;;;;;;;6.47;3.60;;;;;;;;;;5056468;28;20491;-77
2023/11/15 07:55:42;;;;;;;5.40;3.10;;;;;;;;;;5057270;28;20508;-76
2023/11/15 07:58:11;;;;;;;5.30;2.80;;;;;;;;;;5060833;28;20444;-78
2023/11/15 08:00:44;;;;;;;5.30;2.70;;;;;;;;;;5061162;28;20817;-78
2023/11/15 08:03:13;;;;;;;5.47;2.83;;;;;;;;;;5062495;28;20445;-81
2023/11/15 08:05:41;;;;;;;4.73;2.10;;;;;;;;;;5051625;28;20443;-77
2023/11/15 08:08:10;;;;;;;5.87;2.37;;;;;;;;;;5045477;28;20449;-77
2023/11/15 08:10:39;;;;;;;6.73;3.20;;;;;;;;;;5056376;28;20584;-76
2023/11/15 08:13:08;;;;;;;4.13;2.13;;;;;;;;;;5054088;28;20598;-77
2023/11/15 08:15:37;;;;;;;6.63;3.37;;;;;;;;;;5056470;28;20474;-77
2023/11/15 08:18:05;;;;;;;5.20;2.70;;;;;;;;;;5049849;28;20541;-76
2023/11/15 08:20:37;;;;;;;4.93;2.33;;;;;;;;;;5056019;28;20450;-77
2023/11/15 08:23:04;;;;;;;5.10;2.67;;;;;;;;;;5061507;28;20477;-76
2023/11/15 08:25:32;;;;;;;7.90;2.53;;;;;;;;;;5054070;28;20568;-79
2023/11/15 08:28:00;;;;;;;6.43;3.43;;;;;;;;;;5056777;28;20450;-77
2023/11/15 08:30:28;;;;;;;7.80;2.77;;;;;;;;;;5056809;28;20458;-78
2023/11/15 08:32:58;;;;;;;5.97;2.97;;;;;;;;;;5057784;28;20453;-79
2023/11/15 08:35:26;;;;;;;5.10;2.90;;;;;;;;;;5050680;28;20521;-77
2023/11/15 08:37:53;;;;;;;4.67;2.80;;;;;;;;;;5037941;28;20450;-77
2023/11/15 08:40:22;;;;;;;5.40;2.47;;;;;;;;;;5038728;28;20536;-76
2023/11/15 08:42:51;;;;;;;7.20;2.63;;;;;;;;;;5058457;28;20446;-77
2023/11/15 08:45:19;;;;;;;5.90;2.47;;;;;;;;;;5055445;28;20480;-76
2023/11/15 08:47:47;;;;;;;6.13;2.23;;;;;;;;;;5059617;28;20479;-76
2023/11/15 08:50:18;;;;;;;4.77;3.23;;;;;;;;;;5058081;28;20464;-76
2023/11/15 08:52:46;;;;;;;4.13;2.40;;;;;;;;;;5058419;28;20473;-76
2023/11/15 08:55:14;;;;;;;5.30;2.50;;;;;;;;;;5049794;28;21082;-78
2023/11/15 08:57:42;;;;;;;4.70;2.57;;;;;;;;;;5054119;28;20445;-77
2023/11/15 09:00:12;;;;;;;6.47;2.63;;;;;;;;;;5058448;28;20461;-78
2023/11/15 09:02:44;;;;;;;4.60;2.27;;;;;;;;;;5048433;28;20461;-78
2023/11/15 09:05:13;;;;;;;5.17;2.60;;;;;;;;;;5061282;28;20526;-76
2023/11/15 09:07:45;;;;;;;5.07;2.30;;;;;;;;;;5060552;28;20486;-77
2023/11/15 09:10:16;;;;;;;5.27;2.47;;;;;;;;;;5054152;28;20588;-78
2023/11/15 09:12:46;;;;;;;5.60;2.70;;;;;;;;;;5060900;28;20465;-78
2023/11/15 09:15:14;;;;;;;4.80;2.60;;;;;;;;;;5049310;28;20486;-76
2023/11/15 09:17:47;;;;;;;6.97;2.67;;;;;;;;;;5055279;28;20457;-78
2023/11/15 09:20:21;;;;;;;5.73;3.13;;;;;;;;;;5048600;28;20520;-78
2023/11/15 09:22:53;;;;;;;3.80;1.97;;;;;;;;;;5051816;28;20516;-76
2023/11/15 09:25:23;;;;;;;5.10;2.30;;;;;;;;;;5057289;28;20465;-75
2023/11/15 09:27:55;;;;;;;3.83;2.23;;;;;;;;;;5056130;28;20488;-75
2023/11/15 09:30:31;;;;;;;3.87;1.77;;;;;;;;;;5037909;28;21195;-76
2023/11/15 09:33:05;;;;;;;4.23;2.07;;;;;;;;;;5057814;28;20469;-76
2023/11/15 09:35:38;;;;;;;4.83;2.40;;;;;;;;;;5060082;28;20494;-76
2023/11/15 09:38:10;;;;;;;4.70;2.10;;;;;;;;;;5056049;28;20535;-77
2023/11/15 09:40:39;;;;;;;3.43;1.70;;;;;;;;;;5054674;28;20465;-78
2023/11/15 09:43:10;;;;;;;3.40;2.00;;;;;;;;;;5052864;28;20442;-76
2023/11/15 09:45:46;;;;;;;3.23;1.40;;;;;;;;;;5055685;28;20510;-79
2023/11/15 09:48:14;;;;;;;4.37;2.10;;;;;;;;;;5059614;28;20452;-77
2023/11/15 09:50:44;;;;;;;3.43;1.70;;;;;;;;;;5047767;28;20465;-76
2023/11/15 09:53:16;;;;;;;4.73;1.80;;;;;;;;;;5045925;28;20517;-77
2023/11/15 09:55:43;;;;;;;4.10;1.80;;;;;;;;;;5051727;28;20488;-75
2023/11/15 09:58:13;;;;;;;3.30;1.53;;;;;;;;;;5049846;28;20453;-76
2023/11/15 10:00:44;;;;;;;5.77;1.80;;;;;;;;;;5051627;28;21161;-76
2023/11/15 10:03:12;;;;;;;4.03;1.63;;;;;;;;;;5056270;28;20533;-77
2023/11/15 10:05:42;;;;;;;2.50;1.47;;;;;;;;;;5054712;28;20461;-76
2023/11/15 10:08:20;;;;;;;2.90;1.47;;;;;;;;;;5060715;28;20470;-75
2023/11/15 10:11:04;;;;;;;2.67;1.30;;;;;;;;;;5061839;28;20484;-77
2023/11/15 10:13:44;;;;;;;2.67;1.40;;;;;;;;;;5058532;28;20462;-77
2023/11/15 10:16:31;;;;;;;3.33;1.20;;;;;;;;;;5062193;28;20480;-77
2023/11/15 10:19:00;;;;;;;2.50;0.87;;;;;;;;;;5057735;28;20452;-77
2023/11/15 10:21:29;;;;;;;2.90;1.33;;;;;;;;;;5052295;28;20461;-76
2023/11/15 10:24:14;;;;;;;2.67;1.13;;;;;;;;;;5052447;28;21118;-78
2023/11/15 10:26:43;;;;;;;2.30;1.30;;;;;;;;;;5058256;28;20460;-78
2023/11/15 10:29:12;;;;;;;11.00;5.20;;;;;;;;;;5045255;28;20494;-75
2023/11/15 10:31:52;;;;;;;3.90;1.60;;;;;;;;;;5058640;28;20518;-76
2023/11/15 10:34:24;;;;;;;2.97;1.07;;;;;;;;;;5048141;28;20458;-77
2023/11/15 10:37:04;;;;;;;1.90;0.90;;;;;;;;;;5046668;28;20534;-77
2023/11/15 10:39:47;;;;;;;2.00;1.00;;;;;;;;;;5041990;28;20461;-76
2023/11/15 10:42:22;;;;;;;1.87;0.80;;;;;;;;;;5053672;28;20467;-77
2023/11/15 10:44:59;;;;;;;1.73;0.80;;;;;;;;;;5053729;28;20463;-76
2023/11/15 10:47:37;;;;;;;2.20;0.80;;;;;;;;;;5054566;28;20466;-79
2023/11/15 10:50:13;;;;;;;2.03;1.00;;;;;;;;;;5059115;28;20511;-78
2023/11/15 10:52:43;;;;;;;3.47;1.30;;;;;;;;;;5061586;28;20467;-78
2023/11/15 10:55:13;;;;;;;2.30;0.80;;;;;;;;;;5063223;28;20481;-78
2023/11/15 10:57:41;;;;;;;4.60;1.00;;;;;;;;;;5062817;28;20437;-77
2023/11/15 11:00:12;;;;;;;5.00;1.20;;;;;;;;;;5058171;28;20855;-77
2023/11/15 11:02:42;;;;;;;2.33;0.70;;;;;;;;;;5053169;28;20737;-77
2023/11/15 11:05:12;;;;;;;8.53;1.00;;;;;;;;;;5057234;28;20878;-77
2023/11/15 11:07:46;;;;;;;3.83;1.13;;;;;;;;;;5057767;28;20529;-77
2023/11/15 11:10:23;;;;;;;1.90;1.13;;;;;;;;;;5061667;28;20477;-77
2023/11/15 11:12:52;;;;;;;1.70;0.60;;;;;;;;;;5051544;28;20483;-77
2023/11/15 11:15:26;;;;;;;1.80;0.90;;;;;;;;;;5062901;28;20477;-78
2023/11/15 11:18:03;;;;;;;2.77;1.33;;;;;;;;;;5064276;28;20497;-78
2023/11/15 11:20:35;;;;;;;1.60;0.67;;;;;;;;;;5056529;28;20531;-77
2023/11/15 11:23:16;;;;;;;3.20;1.00;;;;;;;;;;5059991;28;20446;-78
2023/11/15 11:25:47;;;;;;;2.90;0.70;;;;;;;;;;5064645;28;20457;-79
2023/11/15 11:28:15;;;;;;;2.10;0.90;;;;;;;;;;5050214;28;20473;-78
2023/11/15 11:30:44;;;;;;;2.63;0.90;;;;;;;;;;5045793;28;20465;-78
2023/11/15 11:33:15;;;;;;;1.60;0.60;;;;;;;;;;5055844;28;20565;-78
2023/11/15 11:35:45;;;;;;;2.13;0.70;;;;;;;;;;5061962;28;21132;-78
2023/11/15 11:38:34;;;;;;;2.63;1.00;;;;;;;;;;5058571;28;20469;-80
2023/11/15 11:41:04;;;;;;;1.60;0.70;;;;;;;;;;5060110;28;20565;-78
2023/11/15 11:43:32;;;;;;;1.77;0.80;;;;;;;;;;5060241;28;20560;-79
2023/11/15 11:46:13;;;;;;;1.77;0.87;;;;;;;;;;5056599;28;20698;-78
2023/11/15 11:48:42;;;;;;;1.70;0.70;;;;;;;;;;5059970;28;20470;-78
2023/11/15 11:51:11;;;;;;;1.80;0.80;;;;;;;;;;5053797;28;20470;-77
2023/11/15 11:53:39;;;;;;;2.37;0.90;;;;;;;;;;5054278;28;20469;-79
2023/11/15 11:56:10;;;;;;;1.80;0.60;;;;;;;;;;5060885;28;20488;-79
2023/11/15 11:58:38;;;;;;;2.33;0.83;;;;;;;;;;5061553;28;20523;-78
2023/11/15 12:01:19;;;;;;;3.43;1.30;;;;;;;;;;5062372;28;20454;-78
2023/11/15 12:03:48;;;;;;;2.57;1.13;;;;;;;;;;5045340;28;20524;-78
2023/11/15 12:06:17;;;;;;;1.60;0.60;;;;;;;;;;5058203;28;20527;-77
2023/11/15 12:08:49;;;;;;;2.43;1.00;;;;;;;;;;5064778;28;20852;-77
2023/11/15 12:11:23;;;;;;;1.60;0.60;;;;;;;;;;5061748;28;20538;-79
2023/11/15 12:13:56;;;;;;;2.80;0.60;;;;;;;;;;5069914;28;20448;-79
2023/11/15 12:16:31;;;;;;;2.93;0.90;;;;;;;;;;5062471;28;20518;-77
2023/11/15 12:19:01;;;;;;;2.43;0.60;;;;;;;;;;5061785;28;20898;-77
2023/11/15 12:21:35;;;;;;;1.43;0.67;;;;;;;;;;5059899;28;20457;-79
2023/11/15 12:24:06;;;;;;;1.97;0.60;;;;;;;;;;5062016;28;20457;-78
2023/11/15 12:26:45;;;;;;;2.37;0.70;;;;;;;;;;5045189;28;21121;-79
2023/11/15 12:29:19;;;;;;;1.70;0.80;;;;;;;;;;5044186;28;20484;-77
2023/11/15 12:31:47;;;;;;;1.87;0.70;;;;;;;;;;5051784;28;20485;-77
2023/11/15 12:34:22;;;;;;;2.87;0.80;;;;;;;;;;5059388;28;20469;-77
2023/11/15 12:36:52;;;;;;;5.43;1.40;;;;;;;;;;5055374;28;20626;-78
2023/11/15 12:39:21;;;;;;;2.23;0.70;;;;;;;;;;5051061;28;20453;-77
2023/11/15 12:41:52;;;;;;;3.20;1.00;;;;;;;;;;5058339;28;20465;-79
2023/11/15 12:44:21;;;;;;;2.10;0.70;;;;;;;;;;5059426;28;20461;-78
2023/11/15 12:46:59;;;;;;;1.73;0.70;;;;;;;;;;5040380;28;20469;-76
2023/11/15 12:49:28;;;;;;;2.40;0.80;;;;;;;;;;5039725;28;20454;-77
2023/11/15 12:52:08;;;;;;;1.80;0.60;;;;;;;;;;5041300;28;20450;-78
2023/11/15 12:54:35;;;;;;;2.07;0.80;;;;;;;;;;5039446;28;20485;-77
2023/11/15 12:57:12;;;;;;;1.90;0.70;;;;;;;;;;5039364;28;20482;-78
2023/11/15 12:59:42;;;;;;;3.33;1.20;;;;;;;;;;5037354;28;20478;-77
2023/11/15 13:02:11;;;;;;;8.07;1.27;;;;;;;;;;5038172;28;20451;-78
2023/11/15 13:04:46;;;;;;;1.93;0.80;;;;;;;;;;5037027;28;20570;-76
2023/11/15 13:07:15;;;;;;;2.27;0.80;;;;;;;;;;5037995;28;20457;-78
2023/11/15 13:09:43;;;;;;;1.77;0.70;;;;;;;;;;5034558;28;20481;-77
2023/11/15 13:12:28;;;;;;;1.60;0.80;;;;;;;;;;5040449;28;20817;-77
2023/11/15 13:14:57;;;;;;;2.90;0.97;;;;;;;;;;5048223;28;20453;-77
2023/11/15 13:17:26;;;;;;;4.00;0.77;;;;;;;;;;5038900;28;20446;-79
2023/11/15 13:19:56;;;;;;;1.70;0.80;;;;;;;;;;5036127;28;20450;-79
2023/11/15 13:22:25;;;;;;;2.20;0.70;;;;;;;;;;5035168;28;20600;-77
2023/11/15 13:24:53;;;;;;;1.63;0.63;;;;;;;;;;5027793;28;20816;-77
2023/11/15 13:27:23;;;;;;;1.90;0.63;;;;;;;;;;5027420;28;20442;-78
2023/11/15 13:29:52;;;;;;;3.13;0.80;;;;;;;;;;5028298;28;20474;-76
2023/11/15 13:32:20;;;;;;;1.80;0.87;;;;;;;;;;5042051;28;20541;-77
2023/11/15 13:34:50;;;;;;;4.10;1.10;;;;;;;;;;5051473;28;20454;-78
2023/11/15 13:37:18;;;;;;;2.00;0.70;;;;;;;;;;5052447;28;20491;-76
2023/11/15 13:39:46;;;;;;;3.03;1.10;;;;;;;;;;5056415;28;20449;-77
2023/11/15 13:42:14;;;;;;;2.00;0.90;;;;;;;;;;5050239;28;20497;-76
2023/11/15 13:44:43;;;;;;;3.20;1.40;;;;;;;;;;5049405;28;20480;-76
2023/11/15 13:47:13;;;;;;;4.40;0.93;;;;;;;;;;5055905;28;20457;-76
2023/11/15 13:49:45;;;;;;;4.73;0.80;;;;;;;;;;5051749;28;21219;-78
2023/11/15 13:52:14;;;;;;;4.27;1.23;;;;;;;;;;5049431;28;20449;-76
2023/11/15 13:54:42;;;;;;;1.70;0.80;;;;;;;;;;5045951;28;20473;-75
2023/11/15 13:57:10;;;;;;;1.80;0.80;;;;;;;;;;5035103;28;20485;-77
2023/11/15 13:59:38;;;;;;;2.93;1.20;;;;;;;;;;5031551;28;20458;-77
2023/11/15 14:02:11;;;;;;;2.63;1.23;;;;;;;;;;5038680;28;20504;-76
2023/11/15 14:04:40;;;;;;;1.77;0.87;;;;;;;;;;5050599;28;20553;-76
2023/11/15 14:07:10;;;;;;;2.47;0.77;;;;;;;;;;5048320;28;20526;-76
2023/11/15 14:09:37;;;;;;;2.80;0.70;;;;;;;;;;5051018;28;20481;-77
2023/11/15 14:12:06;;;;;;;7.13;0.80;;;;;;;;;;5045999;28;20464;-76
2023/11/15 14:14:37;;;;;;;4.80;0.97;;;;;;;;;;5049707;28;20461;-77
2023/11/15 14:17:07;;;;;;;3.47;1.37;;;;;;;;;;5049640;28;20553;-78
2023/11/15 14:19:37;;;;;;;1.93;0.90;;;;;;;;;;5050033;28;20940;-76
2023/11/15 14:22:08;;;;;;;1.50;0.60;;;;;;;;;;5049458;28;20473;-78
2023/11/15 14:24:46;;;;;;;1.40;0.60;;;;;;;;;;5056051;28;20469;-78
2023/11/15 14:27:15;;;;;;;3.20;0.83;;;;;;;;;;5048666;28;20454;-77
2023/11/15 14:29:43;;;;;;;2.50;0.90;;;;;;;;;;5034855;28;20456;-77
2023/11/15 14:32:15;;;;;;;2.70;0.90;;;;;;;;;;5047754;28;20473;-78
2023/11/15 14:34:50;;;;;;;3.30;1.30;;;;;;;;;;5045650;28;20460;-76
2023/11/15 14:37:18;;;;;;;3.50;1.10;;;;;;;;;;5050915;28;20576;-76
2023/11/15 14:39:46;;;;;;;2.13;0.93;;;;;;;;;;5048020;28;20507;-76
2023/11/15 14:42:17;;;;;;;9.60;2.20;;;;;;;;;;5044837;28;20952;-77
2023/11/15 14:44:45;;;;;;;3.60;1.20;;;;;;;;;;5053428;28;20449;-77
2023/11/15 14:47:13;;;;;;;3.60;1.20;;;;;;;;;;5053750;28;20453;-76
2023/11/15 14:49:41;;;;;;;2.30;1.20;;;;;;;;;;5048329;28;20656;-76
2023/11/15 14:52:12;;;;;;;2.90;1.10;;;;;;;;;;5052337;28;20473;-77
2023/11/15 14:54:45;;;;;;;2.20;0.87;;;;;;;;;;5053397;28;20476;-76
2023/11/15 14:57:15;;;;;;;3.93;1.43;;;;;;;;;;5045549;28;20585;-77
2023/11/15 15:02:49;;;;;;;2.00;0.80;;;;;;;;;;5050275;28;20492;-75
2023/11/15 15:05:19;;;;;;;6.60;1.70;;;;;;;;;;5056025;28;20904;-76
2023/11/15 15:07:52;;;;;;;2.57;1.10;;;;;;;;;;5056763;28;20465;-76
2023/11/15 15:10:26;;;;;;;10.43;9.10;;;;;;;;;;5055916;28;20457;-75
2023/11/15 15:12:55;;;;;;;4.00;1.80;;;;;;;;;;5049043;28;20460;-77